sensor_id;sensor_type;location;lat;lon;timestamp;P1;durP1;ratioP1;P2;durP2;ratioP2
22614;SDS011;11474;50.790;0.298;2023-02-11T00:00:04;20.30;;;9.82;;
22614;SDS011;11474;50.790;0.298;2023-02-11T00:02:31;16.33;;;9.85;;
22614;SDS011;11474;50.790;0.298;2023-02-11T00:04:57;17.25;;;10.20;;
22614;SDS011;11474;50.790;0.298;2023-02-11T00:07:27;15.00;;;9.03;;
22614;SDS011;11474;50.790;0.298;2023-02-11T00:09:53;17.08;;;9.77;;
22614;SDS011;11474;50.790;0.298;2023-02-11T00:12:20;15.70;;;9.38;;
22614;SDS011;11474;50.790;0.298;2023-02-11T00:14:46;14.60;;;9.73;;
22614;SDS011;11474;50.790;0.298;2023-02-11T00:17:12;15.52;;;9.27;;
22614;SDS011;11474;50.790;0.298;2023-02-11T00:19:38;16.95;;;10.20;;
22614;SDS011;11474;50.790;0.298;2023-02-11T00:22:04;15.00;;;9.20;;
22614;SDS011;11474;50.790;0.298;2023-02-11T00:24:30;14.98;;;9.90;;
22614;SDS011;11474;50.790;0.298;2023-02-11T00:26:56;19.25;;;10.82;;
22614;SDS011;11474;50.790;0.298;2023-02-11T00:29:23;20.27;;;9.70;;
22614;SDS011;11474;50.790;0.298;2023-02-11T00:31:49;21.20;;;10.77;;
22614;SDS011;11474;50.790;0.298;2023-02-11T00:34:15;20.33;;;10.57;;
22614;SDS011;11474;50.790;0.298;2023-02-11T00:36:41;19.80;;;11.43;;
22614;SDS011;11474;50.790;0.298;2023-02-11T00:39:07;18.70;;;11.25;;
22614;SDS011;11474;50.790;0.298;2023-02-11T00:41:33;22.98;;;11.52;;
22614;SDS011;11474;50.790;0.298;2023-02-11T00:44:00;18.63;;;11.90;;
22614;SDS011;11474;50.790;0.298;2023-02-11T00:46:26;19.05;;;10.88;;
22614;SDS011;11474;50.790;0.298;2023-02-11T00:48:52;19.95;;;11.18;;
22614;SDS011;11474;50.790;0.298;2023-02-11T00:51:25;20.23;;;10.85;;
22614;SDS011;11474;50.790;0.298;2023-02-11T00:53:52;18.38;;;10.63;;
22614;SDS011;11474;50.790;0.298;2023-02-11T00:56:18;19.95;;;10.63;;
22614;SDS011;11474;50.790;0.298;2023-02-11T00:58:44;17.13;;;10.70;;
22614;SDS011;11474;50.790;0.298;2023-02-11T01:01:11;21.65;;;11.55;;
22614;SDS011;11474;50.790;0.298;2023-02-11T01:03:37;16.83;;;10.88;;
22614;SDS011;11474;50.790;0.298;2023-02-11T01:06:03;18.23;;;11.00;;
22614;SDS011;11474;50.790;0.298;2023-02-11T01:08:29;21.90;;;12.00;;
22614;SDS011;11474;50.790;0.298;2023-02-11T01:11:00;20.80;;;11.30;;
22614;SDS011;11474;50.790;0.298;2023-02-11T01:13:26;21.90;;;11.82;;
22614;SDS011;11474;50.790;0.298;2023-02-11T01:15:53;19.42;;;11.05;;
22614;SDS011;11474;50.790;0.298;2023-02-11T01:18:19;18.52;;;11.75;;
22614;SDS011;11474;50.790;0.298;2023-02-11T01:20:45;18.02;;;11.55;;
22614;SDS011;11474;50.790;0.298;2023-02-11T01:23:12;22.52;;;11.80;;
22614;SDS011;11474;50.790;0.298;2023-02-11T01:25:38;18.83;;;11.63;;
22614;SDS011;11474;50.790;0.298;2023-02-11T01:28:04;22.27;;;12.75;;
22614;SDS011;11474;50.790;0.298;2023-02-11T01:30:30;21.20;;;12.40;;
22614;SDS011;11474;50.790;0.298;2023-02-11T01:32:56;18.58;;;12.15;;
22614;SDS011;11474;50.790;0.298;2023-02-11T01:35:22;22.40;;;12.70;;
22614;SDS011;11474;50.790;0.298;2023-02-11T01:37:48;19.65;;;11.88;;
22614;SDS011;11474;50.790;0.298;2023-02-11T01:40:15;20.70;;;12.33;;
22614;SDS011;11474;50.790;0.298;2023-02-11T01:42:41;20.05;;;12.02;;
22614;SDS011;11474;50.790;0.298;2023-02-11T01:47:53;21.42;;;13.70;;
22614;SDS011;11474;50.790;0.298;2023-02-11T01:50:19;20.88;;;13.55;;
22614;SDS011;11474;50.790;0.298;2023-02-11T01:52:45;21.65;;;13.95;;
22614;SDS011;11474;50.790;0.298;2023-02-11T01:55:12;21.23;;;14.00;;
22614;SDS011;11474;50.790;0.298;2023-02-11T01:57:58;25.48;;;14.75;;
22614;SDS011;11474;50.790;0.298;2023-02-11T02:00:35;20.30;;;13.90;;
22614;SDS011;11474;50.790;0.298;2023-02-11T02:03:10;21.35;;;14.27;;
22614;SDS011;11474;50.790;0.298;2023-02-11T02:05:39;26.05;;;15.95;;
22614;SDS011;11474;50.790;0.298;2023-02-11T02:08:13;24.20;;;14.97;;
22614;SDS011;11474;50.790;0.298;2023-02-11T02:10:43;23.73;;;14.68;;
22614;SDS011;11474;50.790;0.298;2023-02-11T02:13:10;26.25;;;14.63;;
22614;SDS011;11474;50.790;0.298;2023-02-11T02:15:37;21.35;;;13.93;;
22614;SDS011;11474;50.790;0.298;2023-02-11T02:36:06;21.23;;;13.32;;
22614;SDS011;11474;50.790;0.298;2023-02-11T02:38:38;23.15;;;13.55;;
22614;SDS011;11474;50.790;0.298;2023-02-11T02:41:07;20.63;;;13.23;;
22614;SDS011;11474;50.790;0.298;2023-02-11T02:43:34;20.80;;;12.80;;
22614;SDS011;11474;50.790;0.298;2023-02-11T02:46:11;20.58;;;13.57;;
22614;SDS011;11474;50.790;0.298;2023-02-11T02:48:37;21.45;;;14.30;;
22614;SDS011;11474;50.790;0.298;2023-02-11T02:56:53;18.25;;;12.85;;
22614;SDS011;11474;50.790;0.298;2023-02-11T03:04:37;19.02;;;12.23;;
22614;SDS011;11474;50.790;0.298;2023-02-11T03:07:11;17.50;;;12.07;;
22614;SDS011;11474;50.790;0.298;2023-02-11T03:12:07;16.33;;;12.13;;
22614;SDS011;11474;50.790;0.298;2023-02-11T03:14:34;17.65;;;11.60;;
22614;SDS011;11474;50.790;0.298;2023-02-11T03:17:01;16.50;;;11.20;;
22614;SDS011;11474;50.790;0.298;2023-02-11T03:19:29;18.65;;;10.90;;
22614;SDS011;11474;50.790;0.298;2023-02-11T03:21:56;14.75;;;10.95;;
22614;SDS011;11474;50.790;0.298;2023-02-11T03:24:30;15.82;;;10.90;;
22614;SDS011;11474;50.790;0.298;2023-02-11T03:27:19;15.80;;;11.20;;
22614;SDS011;11474;50.790;0.298;2023-02-11T03:32:52;17.27;;;11.10;;
22614;SDS011;11474;50.790;0.298;2023-02-11T03:35:22;15.95;;;11.30;;
22614;SDS011;11474;50.790;0.298;2023-02-11T03:37:56;17.05;;;10.30;;
22614;SDS011;11474;50.790;0.298;2023-02-11T03:40:26;15.77;;;10.65;;
22614;SDS011;11474;50.790;0.298;2023-02-11T03:43:15;16.33;;;10.77;;
22614;SDS011;11474;50.790;0.298;2023-02-11T03:45:41;13.30;;;9.60;;
22614;SDS011;11474;50.790;0.298;2023-02-11T03:48:10;15.38;;;10.13;;
22614;SDS011;11474;50.790;0.298;2023-02-11T03:50:39;13.93;;;9.37;;
22614;SDS011;11474;50.790;0.298;2023-02-11T03:53:06;13.85;;;10.75;;
22614;SDS011;11474;50.790;0.298;2023-02-11T03:55:33;15.43;;;9.85;;
22614;SDS011;11474;50.790;0.298;2023-02-11T03:58:01;14.30;;;9.90;;
22614;SDS011;11474;50.790;0.298;2023-02-11T04:00:31;14.63;;;9.95;;
22614;SDS011;11474;50.790;0.298;2023-02-11T04:02:57;14.20;;;9.13;;
22614;SDS011;11474;50.790;0.298;2023-02-11T04:05:23;13.60;;;9.60;;
22614;SDS011;11474;50.790;0.298;2023-02-11T04:07:49;13.35;;;9.30;;
22614;SDS011;11474;50.790;0.298;2023-02-11T04:10:15;13.80;;;9.30;;
22614;SDS011;11474;50.790;0.298;2023-02-11T04:12:41;14.27;;;9.68;;
22614;SDS011;11474;50.790;0.298;2023-02-11T04:15:07;14.00;;;9.57;;
22614;SDS011;11474;50.790;0.298;2023-02-11T04:17:33;12.65;;;9.68;;
22614;SDS011;11474;50.790;0.298;2023-02-11T04:19:59;14.25;;;9.20;;
22614;SDS011;11474;50.790;0.298;2023-02-11T04:22:25;14.03;;;9.43;;
22614;SDS011;11474;50.790;0.298;2023-02-11T04:24:51;14.38;;;10.00;;
22614;SDS011;11474;50.790;0.298;2023-02-11T04:27:17;12.48;;;9.57;;
22614;SDS011;11474;50.790;0.298;2023-02-11T04:29:43;14.00;;;9.68;;
22614;SDS011;11474;50.790;0.298;2023-02-11T04:32:10;13.45;;;9.70;;
22614;SDS011;11474;50.790;0.298;2023-02-11T04:34:36;15.55;;;9.27;;
22614;SDS011;11474;50.790;0.298;2023-02-11T04:37:02;14.57;;;9.70;;
22614;SDS011;11474;50.790;0.298;2023-02-11T04:39:29;13.55;;;9.35;;
22614;SDS011;11474;50.790;0.298;2023-02-11T04:41:55;16.02;;;9.02;;
22614;SDS011;11474;50.790;0.298;2023-02-11T04:44:21;13.45;;;9.10;;
22614;SDS011;11474;50.790;0.298;2023-02-11T04:46:47;12.75;;;8.85;;
22614;SDS011;11474;50.790;0.298;2023-02-11T04:49:13;14.87;;;8.97;;
22614;SDS011;11474;50.790;0.298;2023-02-11T04:51:39;13.27;;;8.88;;
22614;SDS011;11474;50.790;0.298;2023-02-11T04:54:05;14.50;;;8.93;;
22614;SDS011;11474;50.790;0.298;2023-02-11T04:56:32;15.85;;;9.27;;
22614;SDS011;11474;50.790;0.298;2023-02-11T04:58:58;14.80;;;8.80;;
22614;SDS011;11474;50.790;0.298;2023-02-11T05:01:24;13.20;;;8.88;;
22614;SDS011;11474;50.790;0.298;2023-02-11T05:03:50;13.35;;;8.75;;
22614;SDS011;11474;50.790;0.298;2023-02-11T05:06:16;12.32;;;8.35;;
22614;SDS011;11474;50.790;0.298;2023-02-11T05:08:42;15.55;;;9.35;;
22614;SDS011;11474;50.790;0.298;2023-02-11T05:11:19;12.02;;;8.48;;
22614;SDS011;11474;50.790;0.298;2023-02-11T05:13:46;14.82;;;8.20;;
22614;SDS011;11474;50.790;0.298;2023-02-11T05:16:12;16.17;;;9.38;;
22614;SDS011;11474;50.790;0.298;2023-02-11T05:18:39;13.13;;;8.65;;
22614;SDS011;11474;50.790;0.298;2023-02-11T05:21:06;13.30;;;8.57;;
22614;SDS011;11474;50.790;0.298;2023-02-11T05:23:32;13.32;;;8.05;;
22614;SDS011;11474;50.790;0.298;2023-02-11T05:25:58;15.53;;;8.40;;
22614;SDS011;11474;50.790;0.298;2023-02-11T05:28:25;12.38;;;7.78;;
22614;SDS011;11474;50.790;0.298;2023-02-11T05:30:51;13.47;;;8.20;;
22614;SDS011;11474;50.790;0.298;2023-02-11T05:33:17;13.15;;;7.90;;
22614;SDS011;11474;50.790;0.298;2023-02-11T05:35:43;13.40;;;7.90;;
22614;SDS011;11474;50.790;0.298;2023-02-11T05:38:09;12.85;;;8.02;;
22614;SDS011;11474;50.790;0.298;2023-02-11T05:40:35;13.43;;;8.17;;
22614;SDS011;11474;50.790;0.298;2023-02-11T05:43:01;14.90;;;7.72;;
22614;SDS011;11474;50.790;0.298;2023-02-11T05:45:27;14.37;;;8.00;;
22614;SDS011;11474;50.790;0.298;2023-02-11T05:47:53;14.60;;;8.50;;
22614;SDS011;11474;50.790;0.298;2023-02-11T05:50:19;14.27;;;7.68;;
22614;SDS011;11474;50.790;0.298;2023-02-11T05:52:45;13.20;;;7.47;;
22614;SDS011;11474;50.790;0.298;2023-02-11T05:55:11;12.90;;;7.25;;
22614;SDS011;11474;50.790;0.298;2023-02-11T05:57:37;13.40;;;7.00;;
22614;SDS011;11474;50.790;0.298;2023-02-11T06:00:04;13.00;;;6.90;;
22614;SDS011;11474;50.790;0.298;2023-02-11T06:02:30;12.43;;;6.88;;
22614;SDS011;11474;50.790;0.298;2023-02-11T06:04:56;12.50;;;6.75;;
22614;SDS011;11474;50.790;0.298;2023-02-11T06:07:22;13.03;;;6.47;;
22614;SDS011;11474;50.790;0.298;2023-02-11T06:09:48;15.07;;;7.55;;
22614;SDS011;11474;50.790;0.298;2023-02-11T06:12:14;12.73;;;7.03;;
22614;SDS011;11474;50.790;0.298;2023-02-11T06:14:40;11.82;;;7.03;;
22614;SDS011;11474;50.790;0.298;2023-02-11T06:17:06;11.77;;;6.80;;
22614;SDS011;11474;50.790;0.298;2023-02-11T06:19:33;11.55;;;6.65;;
22614;SDS011;11474;50.790;0.298;2023-02-11T06:21:59;12.05;;;6.85;;
22614;SDS011;11474;50.790;0.298;2023-02-11T06:24:25;12.40;;;7.22;;
22614;SDS011;11474;50.790;0.298;2023-02-11T06:26:51;12.43;;;6.68;;
22614;SDS011;11474;50.790;0.298;2023-02-11T06:29:17;12.27;;;6.57;;
22614;SDS011;11474;50.790;0.298;2023-02-11T06:31:43;12.38;;;5.97;;
22614;SDS011;11474;50.790;0.298;2023-02-11T06:34:09;12.13;;;6.35;;
22614;SDS011;11474;50.790;0.298;2023-02-11T06:36:35;11.57;;;5.55;;
22614;SDS011;11474;50.790;0.298;2023-02-11T06:39:01;10.75;;;5.22;;
22614;SDS011;11474;50.790;0.298;2023-02-11T06:41:27;8.95;;;5.00;;
22614;SDS011;11474;50.790;0.298;2023-02-11T06:43:53;11.27;;;4.47;;
22614;SDS011;11474;50.790;0.298;2023-02-11T06:46:19;13.02;;;5.00;;
22614;SDS011;11474;50.790;0.298;2023-02-11T06:48:45;11.52;;;5.22;;
22614;SDS011;11474;50.790;0.298;2023-02-11T06:51:12;9.27;;;5.10;;
22614;SDS011;11474;50.790;0.298;2023-02-11T06:53:41;10.35;;;5.10;;
22614;SDS011;11474;50.790;0.298;2023-02-11T06:56:09;11.45;;;4.32;;
22614;SDS011;11474;50.790;0.298;2023-02-11T06:58:35;8.25;;;4.25;;
22614;SDS011;11474;50.790;0.298;2023-02-11T07:01:08;8.70;;;4.43;;
22614;SDS011;11474;50.790;0.298;2023-02-11T07:03:34;11.50;;;3.90;;
22614;SDS011;11474;50.790;0.298;2023-02-11T07:06:05;14.13;;;4.75;;
22614;SDS011;11474;50.790;0.298;2023-02-11T07:08:31;9.47;;;4.10;;
22614;SDS011;11474;50.790;0.298;2023-02-11T07:10:58;9.88;;;4.60;;
22614;SDS011;11474;50.790;0.298;2023-02-11T07:13:24;10.25;;;4.90;;
22614;SDS011;11474;50.790;0.298;2023-02-11T07:15:50;10.20;;;4.80;;
22614;SDS011;11474;50.790;0.298;2023-02-11T07:18:16;10.07;;;4.70;;
22614;SDS011;11474;50.790;0.298;2023-02-11T07:20:42;9.68;;;4.22;;
22614;SDS011;11474;50.790;0.298;2023-02-11T07:23:08;10.02;;;4.40;;
22614;SDS011;11474;50.790;0.298;2023-02-11T07:25:34;10.10;;;4.18;;
22614;SDS011;11474;50.790;0.298;2023-02-11T07:28:00;11.82;;;4.55;;
22614;SDS011;11474;50.790;0.298;2023-02-11T07:30:27;9.65;;;4.30;;
22614;SDS011;11474;50.790;0.298;2023-02-11T07:32:54;9.25;;;4.30;;
22614;SDS011;11474;50.790;0.298;2023-02-11T07:35:20;9.38;;;4.13;;
22614;SDS011;11474;50.790;0.298;2023-02-11T07:37:46;8.70;;;4.57;;
22614;SDS011;11474;50.790;0.298;2023-02-11T07:40:12;10.07;;;4.47;;
22614;SDS011;11474;50.790;0.298;2023-02-11T07:42:38;11.10;;;4.63;;
22614;SDS011;11474;50.790;0.298;2023-02-11T07:45:05;6.82;;;3.92;;
22614;SDS011;11474;50.790;0.298;2023-02-11T07:47:33;9.43;;;4.45;;
22614;SDS011;11474;50.790;0.298;2023-02-11T07:49:59;8.82;;;4.55;;
22614;SDS011;11474;50.790;0.298;2023-02-11T07:52:27;11.30;;;4.57;;
22614;SDS011;11474;50.790;0.298;2023-02-11T07:54:53;9.23;;;4.25;;
22614;SDS011;11474;50.790;0.298;2023-02-11T07:57:19;9.65;;;3.88;;
22614;SDS011;11474;50.790;0.298;2023-02-11T07:59:45;11.02;;;4.40;;
22614;SDS011;11474;50.790;0.298;2023-02-11T08:02:11;9.30;;;4.50;;
22614;SDS011;11474;50.790;0.298;2023-02-11T08:04:38;10.45;;;4.32;;
22614;SDS011;11474;50.790;0.298;2023-02-11T08:07:04;12.30;;;4.87;;
22614;SDS011;11474;50.790;0.298;2023-02-11T08:09:30;12.50;;;4.70;;
22614;SDS011;11474;50.790;0.298;2023-02-11T08:11:57;10.20;;;4.57;;
22614;SDS011;11474;50.790;0.298;2023-02-11T08:14:23;12.43;;;4.93;;
22614;SDS011;11474;50.790;0.298;2023-02-11T08:16:51;10.80;;;4.75;;
22614;SDS011;11474;50.790;0.298;2023-02-11T08:19:17;10.27;;;5.13;;
22614;SDS011;11474;50.790;0.298;2023-02-11T08:21:43;11.25;;;4.95;;
22614;SDS011;11474;50.790;0.298;2023-02-11T08:24:10;12.80;;;5.13;;
22614;SDS011;11474;50.790;0.298;2023-02-11T08:26:36;11.05;;;4.88;;
22614;SDS011;11474;50.790;0.298;2023-02-11T08:29:05;10.60;;;5.17;;
22614;SDS011;11474;50.790;0.298;2023-02-11T08:31:32;11.27;;;5.37;;
22614;SDS011;11474;50.790;0.298;2023-02-11T08:33:59;11.90;;;5.00;;
22614;SDS011;11474;50.790;0.298;2023-02-11T08:36:27;12.85;;;6.00;;
22614;SDS011;11474;50.790;0.298;2023-02-11T08:38:57;12.80;;;6.13;;
22614;SDS011;11474;50.790;0.298;2023-02-11T08:41:24;15.05;;;6.30;;
22614;SDS011;11474;50.790;0.298;2023-02-11T08:43:50;11.45;;;6.80;;
22614;SDS011;11474;50.790;0.298;2023-02-11T08:46:18;11.77;;;6.10;;
22614;SDS011;11474;50.790;0.298;2023-02-11T08:48:44;12.87;;;6.73;;
22614;SDS011;11474;50.790;0.298;2023-02-11T08:51:21;17.73;;;6.47;;
22614;SDS011;11474;50.790;0.298;2023-02-11T08:53:47;13.00;;;6.40;;
22614;SDS011;11474;50.790;0.298;2023-02-11T08:56:14;14.50;;;6.72;;
22614;SDS011;11474;50.790;0.298;2023-02-11T08:58:41;14.27;;;6.53;;
22614;SDS011;11474;50.790;0.298;2023-02-11T09:01:08;12.07;;;6.55;;
22614;SDS011;11474;50.790;0.298;2023-02-11T09:03:34;12.40;;;6.53;;
22614;SDS011;11474;50.790;0.298;2023-02-11T09:06:03;12.00;;;6.25;;
22614;SDS011;11474;50.790;0.298;2023-02-11T09:08:29;11.23;;;6.18;;
22614;SDS011;11474;50.790;0.298;2023-02-11T09:10:55;14.25;;;6.00;;
22614;SDS011;11474;50.790;0.298;2023-02-11T09:13:21;17.43;;;6.37;;
22614;SDS011;11474;50.790;0.298;2023-02-11T09:15:47;11.70;;;6.25;;
22614;SDS011;11474;50.790;0.298;2023-02-11T09:18:13;12.37;;;6.70;;
22614;SDS011;11474;50.790;0.298;2023-02-11T09:20:39;11.90;;;6.07;;
22614;SDS011;11474;50.790;0.298;2023-02-11T09:23:05;14.32;;;6.00;;
22614;SDS011;11474;50.790;0.298;2023-02-11T09:25:31;9.15;;;5.20;;
22614;SDS011;11474;50.790;0.298;2023-02-11T09:27:57;11.02;;;4.68;;
22614;SDS011;11474;50.790;0.298;2023-02-11T09:30:23;12.25;;;4.95;;
22614;SDS011;11474;50.790;0.298;2023-02-11T09:32:49;9.70;;;4.57;;
22614;SDS011;11474;50.790;0.298;2023-02-11T09:35:33;11.10;;;4.78;;
22614;SDS011;11474;50.790;0.298;2023-02-11T09:37:59;9.23;;;4.47;;
22614;SDS011;11474;50.790;0.298;2023-02-11T09:40:26;8.40;;;4.18;;
22614;SDS011;11474;50.790;0.298;2023-02-11T09:43:10;9.05;;;3.90;;
22614;SDS011;11474;50.790;0.298;2023-02-11T09:45:39;9.00;;;3.92;;
22614;SDS011;11474;50.790;0.298;2023-02-11T09:48:14;8.75;;;3.58;;
22614;SDS011;11474;50.790;0.298;2023-02-11T09:50:46;10.32;;;3.78;;
22614;SDS011;11474;50.790;0.298;2023-02-11T09:53:17;8.70;;;3.40;;
22614;SDS011;11474;50.790;0.298;2023-02-11T09:55:46;8.02;;;3.47;;
22614;SDS011;11474;50.790;0.298;2023-02-11T09:58:17;9.40;;;3.72;;
22614;SDS011;11474;50.790;0.298;2023-02-11T10:00:51;9.73;;;3.13;;
22614;SDS011;11474;50.790;0.298;2023-02-11T10:03:33;8.23;;;2.90;;
22614;SDS011;11474;50.790;0.298;2023-02-11T10:08:54;8.45;;;3.17;;
22614;SDS011;11474;50.790;0.298;2023-02-11T10:24:09;7.07;;;3.10;;
22614;SDS011;11474;50.790;0.298;2023-02-11T10:26:35;8.52;;;3.10;;
22614;SDS011;11474;50.790;0.298;2023-02-11T10:29:03;9.57;;;3.13;;
22614;SDS011;11474;50.790;0.298;2023-02-11T10:31:36;5.57;;;2.70;;
22614;SDS011;11474;50.790;0.298;2023-02-11T10:34:04;9.05;;;3.33;;
22614;SDS011;11474;50.790;0.298;2023-02-11T10:36:39;9.57;;;3.13;;
22614;SDS011;11474;50.790;0.298;2023-02-11T10:39:25;6.35;;;3.25;;
22614;SDS011;11474;50.790;0.298;2023-02-11T10:42:01;6.53;;;3.08;;
22614;SDS011;11474;50.790;0.298;2023-02-11T10:44:31;7.72;;;3.15;;
22614;SDS011;11474;50.790;0.298;2023-02-11T10:46:58;5.95;;;3.00;;
22614;SDS011;11474;50.790;0.298;2023-02-11T10:54:37;7.82;;;3.60;;
22614;SDS011;11474;50.790;0.298;2023-02-11T10:57:03;8.70;;;3.70;;
22614;SDS011;11474;50.790;0.298;2023-02-11T10:59:30;8.45;;;3.72;;
22614;SDS011;11474;50.790;0.298;2023-02-11T11:02:01;10.75;;;3.30;;
22614;SDS011;11474;50.790;0.298;2023-02-11T11:04:40;7.03;;;3.20;;
22614;SDS011;11474;50.790;0.298;2023-02-11T11:07:08;8.00;;;3.58;;
22614;SDS011;11474;50.790;0.298;2023-02-11T11:09:54;8.70;;;3.47;;
22614;SDS011;11474;50.790;0.298;2023-02-11T11:12:27;6.70;;;3.25;;
22614;SDS011;11474;50.790;0.298;2023-02-11T11:14:55;9.07;;;3.40;;
22614;SDS011;11474;50.790;0.298;2023-02-11T11:17:21;7.40;;;3.10;;
22614;SDS011;11474;50.790;0.298;2023-02-11T11:19:47;9.27;;;3.67;;
22614;SDS011;11474;50.790;0.298;2023-02-11T11:22:20;9.07;;;3.50;;
22614;SDS011;11474;50.790;0.298;2023-02-11T11:24:47;7.65;;;3.30;;
22614;SDS011;11474;50.790;0.298;2023-02-11T11:27:19;8.90;;;3.33;;
22614;SDS011;11474;50.790;0.298;2023-02-11T11:29:50;11.55;;;3.47;;
22614;SDS011;11474;50.790;0.298;2023-02-11T11:32:19;9.20;;;3.42;;
22614;SDS011;11474;50.790;0.298;2023-02-11T11:34:59;9.65;;;3.55;;
22614;SDS011;11474;50.790;0.298;2023-02-11T11:37:30;8.77;;;3.30;;
22614;SDS011;11474;50.790;0.298;2023-02-11T11:39:58;9.43;;;3.13;;
22614;SDS011;11474;50.790;0.298;2023-02-11T11:42:30;8.30;;;3.17;;
22614;SDS011;11474;50.790;0.298;2023-02-11T11:55:33;8.00;;;3.08;;
22614;SDS011;11474;50.790;0.298;2023-02-11T11:57:59;7.90;;;2.92;;
22614;SDS011;11474;50.790;0.298;2023-02-11T12:00:36;7.28;;;3.25;;
22614;SDS011;11474;50.790;0.298;2023-02-11T12:18:45;7.97;;;3.40;;
22614;SDS011;11474;50.790;0.298;2023-02-11T12:26:20;5.55;;;2.90;;
22614;SDS011;11474;50.790;0.298;2023-02-11T12:31:26;7.35;;;3.40;;
22614;SDS011;11474;50.790;0.298;2023-02-11T12:41:55;6.90;;;3.08;;
22614;SDS011;11474;50.790;0.298;2023-02-11T12:49:48;7.28;;;3.25;;
22614;SDS011;11474;50.790;0.298;2023-02-11T12:54:52;7.15;;;3.22;;
22614;SDS011;11474;50.790;0.298;2023-02-11T13:02:19;7.18;;;2.78;;
22614;SDS011;11474;50.790;0.298;2023-02-11T13:04:51;7.80;;;3.00;;
22614;SDS011;11474;50.790;0.298;2023-02-11T13:07:26;7.97;;;2.50;;
22614;SDS011;11474;50.790;0.298;2023-02-11T13:12:40;9.93;;;2.80;;
22614;SDS011;11474;50.790;0.298;2023-02-11T13:15:27;8.85;;;3.30;;
22614;SDS011;11474;50.790;0.298;2023-02-11T13:18:04;9.70;;;3.20;;
22614;SDS011;11474;50.790;0.298;2023-02-11T13:21:20;9.15;;;3.17;;
22614;SDS011;11474;50.790;0.298;2023-02-11T13:25:58;6.85;;;3.15;;
22614;SDS011;11474;50.790;0.298;2023-02-11T13:30:53;8.75;;;3.17;;
22614;SDS011;11474;50.790;0.298;2023-02-11T13:33:36;6.85;;;2.97;;
22614;SDS011;11474;50.790;0.298;2023-02-11T13:38:35;7.88;;;3.28;;
22614;SDS011;11474;50.790;0.298;2023-02-11T13:41:14;5.85;;;3.00;;
22614;SDS011;11474;50.790;0.298;2023-02-11T13:43:41;6.47;;;3.00;;
22614;SDS011;11474;50.790;0.298;2023-02-11T13:46:09;9.93;;;3.10;;
22614;SDS011;11474;50.790;0.298;2023-02-11T13:48:37;7.47;;;2.60;;
22614;SDS011;11474;50.790;0.298;2023-02-11T13:51:04;7.88;;;2.85;;
22614;SDS011;11474;50.790;0.298;2023-02-11T13:53:47;8.80;;;2.90;;
22614;SDS011;11474;50.790;0.298;2023-02-11T13:58:56;7.78;;;4.07;;
22614;SDS011;11474;50.790;0.298;2023-02-11T14:01:43;8.15;;;3.40;;
22614;SDS011;11474;50.790;0.298;2023-02-11T14:16:05;10.63;;;4.03;;
22614;SDS011;11474;50.790;0.298;2023-02-11T14:23:39;10.43;;;3.75;;
22614;SDS011;11474;50.790;0.298;2023-02-11T14:28:41;8.07;;;3.72;;
22614;SDS011;11474;50.790;0.298;2023-02-11T14:31:16;10.70;;;3.50;;
22614;SDS011;11474;50.790;0.298;2023-02-11T14:41:23;9.47;;;3.77;;
22614;SDS011;11474;50.790;0.298;2023-02-11T14:43:54;31.58;;;12.95;;
22614;SDS011;11474;50.790;0.298;2023-02-11T14:46:22;12.98;;;5.43;;
22614;SDS011;11474;50.790;0.298;2023-02-11T14:48:49;9.05;;;3.88;;
22614;SDS011;11474;50.790;0.298;2023-02-11T14:51:27;8.98;;;3.67;;
22614;SDS011;11474;50.790;0.298;2023-02-11T14:54:04;10.75;;;3.80;;
22614;SDS011;11474;50.790;0.298;2023-02-11T14:56:36;11.30;;;4.05;;
22614;SDS011;11474;50.790;0.298;2023-02-11T14:59:12;8.60;;;3.38;;
22614;SDS011;11474;50.790;0.298;2023-02-11T15:01:41;8.65;;;3.35;;
22614;SDS011;11474;50.790;0.298;2023-02-11T15:04:20;9.38;;;4.20;;
22614;SDS011;11474;50.790;0.298;2023-02-11T15:06:47;9.85;;;3.80;;
22614;SDS011;11474;50.790;0.298;2023-02-11T15:09:18;9.77;;;3.42;;
22614;SDS011;11474;50.790;0.298;2023-02-11T15:11:48;8.82;;;3.63;;
22614;SDS011;11474;50.790;0.298;2023-02-11T15:16:41;6.55;;;3.40;;
22614;SDS011;11474;50.790;0.298;2023-02-11T15:19:11;8.90;;;3.78;;
22614;SDS011;11474;50.790;0.298;2023-02-11T15:21:41;7.68;;;3.72;;
22614;SDS011;11474;50.790;0.298;2023-02-11T15:24:26;11.90;;;4.32;;
22614;SDS011;11474;50.790;0.298;2023-02-11T15:26:56;9.43;;;3.88;;
22614;SDS011;11474;50.790;0.298;2023-02-11T15:29:23;10.18;;;4.70;;
22614;SDS011;11474;50.790;0.298;2023-02-11T15:34:34;11.43;;;4.65;;
22614;SDS011;11474;50.790;0.298;2023-02-11T15:37:01;13.85;;;4.55;;
22614;SDS011;11474;50.790;0.298;2023-02-11T15:44:42;10.85;;;4.15;;
22614;SDS011;11474;50.790;0.298;2023-02-11T15:47:09;10.25;;;4.38;;
22614;SDS011;11474;50.790;0.298;2023-02-11T15:49:35;12.63;;;4.77;;
22614;SDS011;11474;50.790;0.298;2023-02-11T15:52:02;12.57;;;5.32;;
22614;SDS011;11474;50.790;0.298;2023-02-11T15:54:28;13.68;;;5.30;;
22614;SDS011;11474;50.790;0.298;2023-02-11T15:57:01;12.63;;;5.78;;
22614;SDS011;11474;50.790;0.298;2023-02-11T15:59:29;10.40;;;5.17;;
22614;SDS011;11474;50.790;0.298;2023-02-11T16:01:56;12.43;;;4.90;;
22614;SDS011;11474;50.790;0.298;2023-02-11T16:04:24;10.97;;;4.90;;
22614;SDS011;11474;50.790;0.298;2023-02-11T16:06:51;10.82;;;4.93;;
22614;SDS011;11474;50.790;0.298;2023-02-11T16:16:45;10.73;;;5.10;;
22614;SDS011;11474;50.790;0.298;2023-02-11T16:19:16;11.82;;;5.38;;
22614;SDS011;11474;50.790;0.298;2023-02-11T16:21:43;10.30;;;5.30;;
22614;SDS011;11474;50.790;0.298;2023-02-11T16:26:48;14.38;;;7.18;;
22614;SDS011;11474;50.790;0.298;2023-02-11T16:29:16;13.20;;;6.50;;
22614;SDS011;11474;50.790;0.298;2023-02-11T16:31:43;13.07;;;6.35;;
22614;SDS011;11474;50.790;0.298;2023-02-11T16:34:12;12.30;;;5.80;;
22614;SDS011;11474;50.790;0.298;2023-02-11T16:36:38;12.30;;;5.93;;
22614;SDS011;11474;50.790;0.298;2023-02-11T16:39:04;14.57;;;6.90;;
22614;SDS011;11474;50.790;0.298;2023-02-11T16:41:30;15.00;;;7.35;;
22614;SDS011;11474;50.790;0.298;2023-02-11T16:43:56;13.23;;;7.17;;
22614;SDS011;11474;50.790;0.298;2023-02-11T16:46:23;11.68;;;6.45;;
22614;SDS011;11474;50.790;0.298;2023-02-11T16:48:50;14.02;;;6.80;;
22614;SDS011;11474;50.790;0.298;2023-02-11T16:51:16;11.73;;;5.65;;
22614;SDS011;11474;50.790;0.298;2023-02-11T16:53:42;13.73;;;6.05;;
22614;SDS011;11474;50.790;0.298;2023-02-11T16:56:15;15.15;;;7.55;;
22614;SDS011;11474;50.790;0.298;2023-02-11T16:58:42;11.55;;;5.82;;
22614;SDS011;11474;50.790;0.298;2023-02-11T17:01:08;13.63;;;6.30;;
22614;SDS011;11474;50.790;0.298;2023-02-11T17:03:35;11.43;;;5.65;;
22614;SDS011;11474;50.790;0.298;2023-02-11T17:06:04;11.77;;;5.57;;
22614;SDS011;11474;50.790;0.298;2023-02-11T17:08:31;13.70;;;5.90;;
22614;SDS011;11474;50.790;0.298;2023-02-11T17:10:57;13.38;;;6.43;;
22614;SDS011;11474;50.790;0.298;2023-02-11T17:13:23;15.73;;;6.32;;
22614;SDS011;11474;50.790;0.298;2023-02-11T17:15:49;13.88;;;6.65;;
22614;SDS011;11474;50.790;0.298;2023-02-11T17:18:15;11.65;;;5.93;;
22614;SDS011;11474;50.790;0.298;2023-02-11T17:20:41;13.98;;;6.13;;
22614;SDS011;11474;50.790;0.298;2023-02-11T17:23:07;10.70;;;5.80;;
22614;SDS011;11474;50.790;0.298;2023-02-11T17:25:34;11.52;;;6.18;;
22614;SDS011;11474;50.790;0.298;2023-02-11T17:28:04;12.85;;;6.90;;
22614;SDS011;11474;50.790;0.298;2023-02-11T17:30:30;15.93;;;7.47;;
22614;SDS011;11474;50.790;0.298;2023-02-11T17:32:56;14.05;;;7.55;;
22614;SDS011;11474;50.790;0.298;2023-02-11T17:35:22;13.63;;;7.47;;